createdAt,value
2022-10-28T00:01:18.628Z,83.02
2022-10-28T00:03:47.680Z,83.00
2022-10-28T00:06:20.544Z,82.84
2022-10-28T00:08:47.294Z,82.81
2022-10-28T00:11:20.967Z,82.68
2022-10-28T00:13:48.180Z,83.17
2022-10-28T00:16:24.280Z,82.97
2022-10-28T00:18:53.740Z,82.84
2022-10-28T00:21:23.610Z,82.99
2022-10-28T00:23:50.361Z,83.05
2022-10-28T00:26:19.570Z,83.08
2022-10-28T00:28:53.336Z,83.10
2022-10-28T00:31:22.433Z,83.28
2022-10-28T00:33:48.973Z,82.85
2022-10-28T00:36:16.952Z,82.83
2022-10-28T00:38:45.204Z,83.31
2022-10-28T00:41:13.553Z,82.95
2022-10-28T00:43:48.256Z,83.25
2022-10-28T00:46:29.970Z,83.05
2022-10-28T00:49:14.437Z,82.93
2022-10-28T00:51:42.338Z,83.26
2022-10-28T00:54:08.941Z,83.32
2022-10-28T00:56:42.801Z,83.10
2022-10-28T00:59:18.509Z,83.11
2022-10-28T01:01:45.206Z,83.49
2022-10-28T01:04:13.362Z,83.62
2022-10-28T01:06:41.592Z,83.46
2022-10-28T01:09:07.973Z,83.01
2022-10-28T01:11:51.280Z,83.18
2022-10-28T01:14:32.522Z,83.12
2022-10-28T01:17:04.943Z,83.59
2022-10-28T01:19:51.662Z,83.47
2022-10-28T01:22:33.778Z,83.17
2022-10-28T01:25:45.483Z,83.35
2022-10-28T01:28:24.047Z,83.59
2022-10-28T01:31:25.798Z,83.76
2022-10-28T01:34:06.702Z,83.80
2022-10-28T01:36:42.166Z,84.22
2022-10-28T01:39:28.273Z,83.99
2022-10-28T01:42:06.939Z,84.13
2022-10-28T01:45:09.009Z,84.09
2022-10-28T01:48:01.929Z,84.27
2022-10-28T01:50:39.664Z,84.35
2022-10-28T01:53:21.195Z,84.08
2022-10-28T01:55:50.576Z,83.77
2022-10-28T01:58:21.243Z,83.58
2022-10-28T02:00:48.835Z,82.82
2022-10-28T02:03:16.236Z,82.48
2022-10-28T02:05:51.914Z,81.76
2022-10-28T02:08:18.277Z,81.80
2022-10-28T02:11:11.723Z,81.51
2022-10-28T02:13:44.130Z,81.15
2022-10-28T02:16:10.437Z,80.95
2022-10-28T02:18:58.470Z,81.01
2022-10-28T02:21:42.706Z,81.22
2022-10-28T02:24:22.278Z,81.57
2022-10-28T02:27:03.860Z,81.33
2022-10-28T02:29:40.919Z,81.97
2022-10-28T02:32:13.745Z,82.21
2022-10-28T02:34:44.610Z,82.02
2022-10-28T02:37:38.910Z,82.29
2022-10-28T02:40:12.351Z,82.41
2022-10-28T02:42:48.748Z,82.38
2022-10-28T02:45:28.117Z,83.17
2022-10-28T02:48:00.172Z,82.84
2022-10-28T02:50:33.417Z,82.88
2022-10-28T02:53:02.489Z,82.83
2022-10-28T02:55:35.170Z,82.61
2022-10-28T02:58:01.817Z,82.76
2022-10-28T03:00:28.205Z,82.96
2022-10-28T03:02:54.556Z,83.17
2022-10-28T03:05:20.947Z,83.87
2022-10-28T03:07:47.310Z,84.00
2022-10-28T03:10:13.845Z,83.58
2022-10-28T03:12:40.214Z,84.21
2022-10-28T03:15:07.069Z,84.15
2022-10-28T03:17:33.497Z,84.00
2022-10-28T03:20:00.008Z,84.47
2022-10-28T03:22:26.477Z,84.76
2022-10-28T03:24:52.838Z,84.40
2022-10-28T03:27:19.190Z,84.71
2022-10-28T03:29:46.264Z,85.23
2022-10-28T03:32:13.242Z,85.12
2022-10-28T03:34:39.924Z,85.39
2022-10-28T03:37:06.532Z,85.55
2022-10-28T03:39:32.887Z,85.19
2022-10-28T03:41:59.249Z,84.29
2022-10-28T03:44:25.623Z,84.40
2022-10-28T03:46:52.059Z,84.01
2022-10-28T03:49:18.437Z,84.47
2022-10-28T03:51:44.820Z,83.99
2022-10-28T03:54:11.161Z,83.54
2022-10-28T03:56:40.397Z,83.65
2022-10-28T03:59:08.998Z,83.56
2022-10-28T04:01:35.778Z,84.29
2022-10-28T04:04:02.263Z,84.54
2022-10-28T04:06:28.645Z,84.10
2022-10-28T04:08:55.050Z,84.44
2022-10-28T04:11:21.427Z,84.90
2022-10-28T04:13:47.768Z,85.41
2022-10-28T04:16:14.124Z,85.26
2022-10-28T04:18:40.517Z,85.52
2022-10-28T04:21:06.922Z,85.32
2022-10-28T04:23:33.270Z,86.00
2022-10-28T04:25:59.663Z,86.23
2022-10-28T04:28:26.161Z,85.91
2022-10-28T04:30:52.538Z,86.35
2022-10-28T04:33:18.915Z,85.76
2022-10-28T04:35:45.279Z,85.35
2022-10-28T04:38:13.838Z,85.10
2022-10-28T04:40:40.240Z,85.03
2022-10-28T04:43:08.575Z,84.86
2022-10-28T04:45:36.540Z,84.91
2022-10-28T04:48:03.047Z,85.19
2022-10-28T04:50:29.409Z,85.00
2022-10-28T04:52:56.214Z,84.65
2022-10-28T04:55:22.975Z,84.13
2022-10-28T04:57:56.825Z,84.39
2022-10-28T05:00:24.561Z,84.32
2022-10-28T05:02:51.356Z,84.59
2022-10-28T05:05:18.539Z,84.33
2022-10-28T05:07:45.927Z,84.47
2022-10-28T05:10:15.329Z,84.29
2022-10-28T05:12:43.137Z,84.38
2022-10-28T05:15:11.039Z,84.85
2022-10-28T05:17:44.708Z,85.06
2022-10-28T05:20:12.201Z,85.45
2022-10-28T05:22:38.642Z,84.67
2022-10-28T05:25:05.308Z,84.89
2022-10-28T05:27:31.767Z,85.08
2022-10-28T05:29:58.138Z,85.50
2022-10-28T05:32:24.486Z,85.59
2022-10-28T05:34:50.853Z,85.78
2022-10-28T05:37:17.274Z,85.70
2022-10-28T05:39:43.674Z,85.50
2022-10-28T05:42:10.047Z,85.16
2022-10-28T05:44:36.408Z,85.79
2022-10-28T05:47:02.814Z,85.95
2022-10-28T05:49:29.166Z,85.84
2022-10-28T05:51:55.520Z,86.14
2022-10-28T05:54:21.850Z,86.98
2022-10-28T05:56:48.200Z,87.00
2022-10-28T05:59:14.577Z,87.13
2022-10-28T06:01:41.035Z,87.62
2022-10-28T06:04:07.566Z,87.69
2022-10-28T06:06:33.961Z,87.17
2022-10-28T06:09:01.563Z,86.72
2022-10-28T06:11:26.435Z,86.98
2022-10-28T06:13:52.827Z,87.05
2022-10-28T06:16:19.218Z,86.86
2022-10-28T06:18:45.597Z,87.04
2022-10-28T06:21:12.046Z,86.60
2022-10-28T06:23:38.446Z,87.25
2022-10-28T06:26:04.882Z,87.13
2022-10-28T06:28:31.463Z,87.00
2022-10-28T06:31:02.257Z,87.53
2022-10-28T06:33:28.617Z,87.82
2022-10-28T06:35:56.484Z,87.24
2022-10-28T06:38:27.286Z,87.70
2022-10-28T06:40:56.721Z,87.56
2022-10-28T06:43:23.561Z,87.90
2022-10-28T06:45:55.402Z,87.47
2022-10-28T06:48:23.955Z,87.73
2022-10-28T06:50:50.389Z,87.65
2022-10-28T06:53:16.787Z,88.01
2022-10-28T06:55:48.585Z,87.64
2022-10-28T06:58:15.319Z,87.50
2022-10-28T07:00:41.713Z,87.98
2022-10-28T07:03:09.814Z,87.35
2022-10-28T07:05:36.341Z,87.68
2022-10-28T07:08:02.771Z,87.36
2022-10-28T07:10:29.136Z,87.59
2022-10-28T07:12:55.756Z,87.61
2022-10-28T07:15:22.620Z,87.51
2022-10-28T07:17:56.433Z,87.49
2022-10-28T07:20:24.582Z,87.20
2022-10-28T07:22:58.990Z,87.63
2022-10-28T07:25:26.874Z,87.32
2022-10-28T07:27:53.578Z,87.44
2022-10-28T07:30:20.185Z,86.84
2022-10-28T07:32:46.545Z,87.21
2022-10-28T07:35:12.939Z,86.81
2022-10-28T07:37:39.639Z,87.44
2022-10-28T07:40:07.055Z,87.21
2022-10-28T07:42:34.310Z,87.07
2022-10-28T07:45:00.702Z,86.87
2022-10-28T07:47:27.085Z,86.86
2022-10-28T07:49:54.350Z,86.86
2022-10-28T07:52:21.936Z,86.65
2022-10-28T07:54:48.534Z,86.58
2022-10-28T07:57:14.888Z,86.37
2022-10-28T07:59:41.247Z,86.31
2022-10-28T08:02:07.668Z,86.29
2022-10-28T08:04:34.142Z,86.30
2022-10-28T08:07:00.501Z,86.42
2022-10-28T08:09:27.227Z,86.21
2022-10-28T08:11:55.834Z,86.24
2022-10-28T08:14:22.332Z,85.91
2022-10-28T08:16:48.670Z,86.15
2022-10-28T08:19:15.008Z,85.86
2022-10-28T08:21:41.372Z,85.85
2022-10-28T08:24:08.010Z,85.63
2022-10-28T08:26:34.690Z,85.94
2022-10-28T08:29:01.500Z,85.85
2022-10-28T08:31:27.958Z,85.78
2022-10-28T08:33:54.341Z,85.95
2022-10-28T08:36:20.703Z,85.86
2022-10-28T08:38:47.155Z,85.84
2022-10-28T08:41:21.019Z,85.60
2022-10-28T08:44:06.004Z,85.60
2022-10-28T08:46:58.707Z,85.45
2022-10-28T08:49:25.798Z,85.33
2022-10-28T08:51:56.694Z,85.38
2022-10-28T08:54:31.842Z,84.95
2022-10-28T08:57:01.317Z,84.64
2022-10-28T08:59:32.364Z,84.65
2022-10-28T09:02:11.125Z,84.63
2022-10-28T09:04:43.200Z,84.68
2022-10-28T09:07:14.357Z,84.39
2022-10-28T09:09:40.662Z,84.32
2022-10-28T09:12:23.163Z,84.26
2022-10-28T09:15:21.548Z,84.05
2022-10-28T09:17:51.068Z,84.10
2022-10-28T09:20:21.077Z,83.88
2022-10-28T09:22:59.403Z,83.90
2022-10-28T09:25:49.936Z,83.83
2022-10-28T09:28:42.042Z,83.58
2022-10-28T09:31:16.828Z,83.39
2022-10-28T09:34:05.439Z,83.18
2022-10-28T09:36:42.119Z,83.18
2022-10-28T09:39:20.904Z,83.50
2022-10-28T09:41:50.907Z,83.52
2022-10-28T09:44:34.829Z,83.28
2022-10-28T09:47:05.321Z,83.83
2022-10-28T09:49:36.540Z,83.75
2022-10-28T09:52:08.886Z,83.71
2022-10-28T09:54:40.230Z,84.62
2022-10-28T09:57:06.950Z,84.69
2022-10-28T09:59:34.066Z,84.81
2022-10-28T10:02:00.809Z,84.97
2022-10-28T10:04:31.266Z,85.02
2022-10-28T10:07:09.259Z,84.93
2022-10-28T10:09:38.650Z,84.66
2022-10-28T10:12:10.645Z,84.16
2022-10-28T10:14:40.745Z,83.91
2022-10-28T10:17:14.937Z,83.36
2022-10-28T10:20:01.865Z,83.28
2022-10-28T10:22:49.203Z,82.70
2022-10-28T10:25:18.818Z,82.23
2022-10-28T10:28:03.559Z,82.15
2022-10-28T10:30:50.823Z,81.67
2022-10-28T10:33:24.398Z,81.41
2022-10-28T10:36:00.186Z,81.26
2022-10-28T10:38:28.120Z,80.90
2022-10-28T10:40:54.703Z,80.73
2022-10-28T10:43:31.736Z,80.72
2022-10-28T10:46:16.340Z,80.47
2022-10-28T10:48:43.289Z,80.13
2022-10-28T10:51:17.920Z,79.87
2022-10-28T10:53:49.335Z,79.43
2022-10-28T10:56:25.473Z,78.55
2022-10-28T10:58:55.029Z,76.50
2022-10-28T11:01:24.983Z,74.47
2022-10-28T11:06:36.785Z,73.26
2022-10-28T11:09:06.461Z,73.14
2022-10-28T11:11:38.210Z,73.45
2022-10-28T11:14:10.505Z,73.72
2022-10-28T11:16:51.511Z,74.24
2022-10-28T11:19:38.258Z,74.44
2022-10-28T11:22:16.501Z,75.13
2022-10-28T11:25:04.693Z,75.62
2022-10-28T11:27:51.705Z,76.25
2022-10-28T11:30:32.273Z,76.65
2022-10-28T11:33:30.456Z,76.85
2022-10-28T11:36:20.079Z,76.19
2022-10-28T11:39:01.447Z,74.73
2022-10-28T11:41:45.996Z,73.64
2022-10-28T11:44:27.917Z,72.65
2022-10-28T11:47:32.701Z,71.26
2022-10-28T11:50:13.295Z,69.00
2022-10-28T11:53:05.159Z,66.78
2022-10-28T11:55:57.070Z,62.59
2022-10-28T11:58:36.588Z,61.08
2022-10-28T12:01:27.397Z,60.46
2022-10-28T12:04:19.716Z,59.54
2022-10-28T12:07:07.493Z,57.35
2022-10-28T12:10:14.768Z,56.68
2022-10-28T12:13:08.451Z,57.41
2022-10-28T12:15:56.672Z,57.22
2022-10-28T12:18:32.814Z,57.86
2022-10-28T12:21:24.243Z,57.28
2022-10-28T12:23:53.191Z,56.81
2022-10-28T12:26:23.112Z,56.79
2022-10-28T12:28:53.892Z,57.73
2022-10-28T12:31:28.605Z,58.18
2022-10-28T12:36:29.632Z,57.98
2022-10-28T12:39:01.787Z,58.36
2022-10-28T12:41:46.542Z,58.68
2022-10-28T12:44:17.134Z,59.12
2022-10-28T12:47:42.158Z,59.86
2022-10-28T12:50:24.827Z,60.23
2022-10-28T12:53:18.563Z,59.43
2022-10-28T12:56:02.192Z,58.45
2022-10-28T12:58:47.396Z,57.02
2022-10-28T13:01:17.836Z,56.94
2022-10-28T13:03:44.297Z,57.00
2022-10-28T13:06:25.675Z,57.81
2022-10-28T13:09:01.330Z,58.61
2022-10-28T13:12:04.979Z,60.29
2022-10-28T13:14:56.151Z,61.49
2022-10-28T13:17:53.825Z,62.33
2022-10-28T13:20:48.834Z,62.91
2022-10-28T13:23:23.541Z,63.08
2022-10-28T13:26:06.033Z,63.95
2022-10-28T13:28:43.234Z,64.32
2022-10-28T13:31:09.904Z,64.27
2022-10-28T13:33:38.918Z,64.11
2022-10-28T13:36:16.333Z,64.22
2022-10-28T13:38:48.963Z,64.32
2022-10-28T13:41:42.233Z,64.81
2022-10-28T13:44:24.536Z,65.58
2022-10-28T13:46:56.945Z,65.81
2022-10-28T13:49:25.020Z,65.84
2022-10-28T13:52:07.922Z,65.78
2022-10-28T13:54:56.285Z,65.75
2022-10-28T13:57:33.044Z,65.76
2022-10-28T14:00:01.618Z,64.94
2022-10-28T14:02:38.459Z,62.52
2022-10-28T14:05:08.712Z,60.43
2022-10-28T14:07:38.262Z,60.33
2022-10-28T14:10:21.382Z,59.19
2022-10-28T14:12:52.426Z,58.50
2022-10-28T14:15:24.462Z,58.15
2022-10-28T14:18:00.908Z,57.65
2022-10-28T14:20:40.434Z,56.28
2022-10-28T14:23:22.100Z,55.33
2022-10-28T14:25:51.589Z,55.62
2022-10-28T14:28:27.000Z,55.44
2022-10-28T14:31:11.780Z,55.04
2022-10-28T14:33:44.354Z,54.66
2022-10-28T14:36:21.772Z,55.38
2022-10-28T14:39:03.467Z,54.55
2022-10-28T14:42:01.469Z,55.24
2022-10-28T14:44:53.443Z,56.66
2022-10-28T14:47:37.912Z,57.66
2022-10-28T14:50:18.989Z,58.56
2022-10-28T14:52:46.470Z,58.75
2022-10-28T14:55:23.971Z,59.07
2022-10-28T14:57:50.454Z,59.60
2022-10-28T15:00:19.680Z,59.36
2022-10-28T15:02:46.843Z,59.39
2022-10-28T15:05:25.828Z,59.76
2022-10-28T15:07:52.929Z,60.01
2022-10-28T15:10:25.872Z,60.38
2022-10-28T15:12:54.562Z,59.89
2022-10-28T15:15:23.823Z,58.60
2022-10-28T15:17:50.874Z,59.36
2022-10-28T15:20:30.608Z,60.59
2022-10-28T15:23:15.909Z,61.52
2022-10-28T15:25:42.270Z,62.32
2022-10-28T15:28:11.498Z,63.36
2022-10-28T15:30:45.780Z,63.72
2022-10-28T15:33:40.112Z,64.33
2022-10-28T15:36:27.017Z,64.98
2022-10-28T15:39:08.632Z,65.49
2022-10-28T15:41:43.674Z,65.77
2022-10-28T15:44:31.473Z,65.93
2022-10-28T15:46:59.589Z,66.38
2022-10-28T15:49:38.931Z,66.30
2022-10-28T15:52:21.613Z,66.27
2022-10-28T15:54:55.605Z,66.25
2022-10-28T15:57:24.532Z,66.68
2022-10-28T16:00:23.048Z,67.11
2022-10-28T16:03:01.998Z,67.73
2022-10-28T16:05:31.381Z,67.92
2022-10-28T16:07:59.491Z,68.43
2022-10-28T16:10:31.120Z,68.62
2022-10-28T16:12:57.647Z,68.81
2022-10-28T16:15:24.065Z,68.82
2022-10-28T16:17:50.512Z,69.13
2022-10-28T16:20:21.711Z,69.47
2022-10-28T16:22:48.356Z,69.73
2022-10-28T16:25:20.607Z,70.29
2022-10-28T16:27:47.998Z,70.58
2022-10-28T16:30:15.187Z,71.00
2022-10-28T16:32:47.138Z,71.12
2022-10-28T16:35:15.961Z,71.72
2022-10-28T16:37:44.717Z,72.02
2022-10-28T16:40:30.819Z,71.72
2022-10-28T16:43:01.380Z,72.18
2022-10-28T16:45:27.856Z,72.02
2022-10-28T16:47:54.514Z,72.33
2022-10-28T16:50:21.277Z,72.53
2022-10-28T16:52:47.615Z,73.05
2022-10-28T16:55:16.570Z,73.13
2022-10-28T16:57:42.930Z,73.01
2022-10-28T17:00:12.865Z,73.57
2022-10-28T17:02:39.898Z,73.31
2022-10-28T17:05:15.720Z,73.54
2022-10-28T17:07:42.102Z,73.83
2022-10-28T17:10:09.363Z,73.69
2022-10-28T17:12:35.765Z,73.82
2022-10-28T17:15:02.152Z,73.73
2022-10-28T17:17:28.511Z,73.74
2022-10-28T17:19:55.142Z,73.68
2022-10-28T17:22:21.582Z,73.94
2022-10-28T17:24:48.020Z,73.77
2022-10-28T17:27:14.544Z,73.87
2022-10-28T17:29:40.995Z,74.11
2022-10-28T17:32:08.604Z,73.70
2022-10-28T17:34:35.703Z,73.33
2022-10-28T17:37:02.080Z,73.22
2022-10-28T17:39:28.936Z,72.46
2022-10-28T17:41:55.350Z,72.85
2022-10-28T17:44:21.980Z,72.56
2022-10-28T17:46:49.382Z,72.72
2022-10-28T17:49:15.824Z,72.92
2022-10-28T17:51:42.250Z,72.30
2022-10-28T17:54:08.768Z,72.40
2022-10-28T17:56:35.927Z,72.00
2022-10-28T17:59:04.160Z,71.81
2022-10-28T18:01:32.743Z,71.53
2022-10-28T18:03:59.302Z,71.19
2022-10-28T18:06:26.050Z,71.05
2022-10-28T18:08:52.720Z,71.03
2022-10-28T18:11:22.651Z,70.42
2022-10-28T18:13:51.461Z,70.26
2022-10-28T18:16:21.090Z,69.57
2022-10-28T18:18:47.740Z,69.61
2022-10-28T18:21:14.677Z,69.47
2022-10-28T18:23:41.197Z,69.41
2022-10-28T18:26:11.646Z,69.38
2022-10-28T18:28:39.228Z,68.99
2022-10-28T18:31:14.323Z,69.01
2022-10-28T18:33:42.121Z,68.76
2022-10-28T18:36:16.581Z,68.57
2022-10-28T18:38:43.318Z,68.74
2022-10-28T18:41:11.411Z,68.70
2022-10-28T18:43:38.087Z,69.09
2022-10-28T18:46:04.619Z,69.19
2022-10-28T18:48:31.433Z,69.73
2022-10-28T18:50:59.468Z,70.40
2022-10-28T18:53:26.377Z,70.72
2022-10-28T18:55:53.120Z,71.25
2022-10-28T18:58:19.504Z,71.31
2022-10-28T19:00:46.053Z,71.89
2022-10-28T19:03:20.231Z,72.28
2022-10-28T19:05:46.669Z,72.45
2022-10-28T19:08:13.849Z,72.87
2022-10-28T19:10:40.600Z,73.83
2022-10-28T19:13:07.092Z,73.58
2022-10-28T19:15:34.875Z,74.13
2022-10-28T19:18:01.330Z,74.28
2022-10-28T19:20:27.790Z,74.74
2022-10-28T19:22:54.674Z,75.06
2022-10-28T19:25:21.278Z,74.84
2022-10-28T19:27:47.657Z,75.24
2022-10-28T19:30:14.217Z,75.21
2022-10-28T19:32:40.652Z,75.22
2022-10-28T19:35:07.378Z,75.21
2022-10-28T19:37:33.814Z,75.29
2022-10-28T19:40:00.190Z,74.83
2022-10-28T19:42:26.736Z,75.00
2022-10-28T19:44:53.177Z,74.65
2022-10-28T19:47:19.642Z,74.62
2022-10-28T19:49:46.037Z,74.65
2022-10-28T19:52:12.482Z,74.73
2022-10-28T19:54:38.879Z,74.78
2022-10-28T19:57:05.321Z,74.41
2022-10-28T19:59:31.755Z,74.67
2022-10-28T20:01:58.241Z,74.67
2022-10-28T20:04:24.782Z,74.98
2022-10-28T20:06:51.180Z,74.74
2022-10-28T20:09:17.656Z,74.63
2022-10-28T20:11:44.561Z,74.96
2022-10-28T20:14:12.657Z,74.82
2022-10-28T20:16:42.307Z,74.44
2022-10-28T20:19:08.979Z,74.25
2022-10-28T20:21:35.498Z,74.24
2022-10-28T20:24:05.760Z,73.98
2022-10-28T20:26:34.879Z,74.34
2022-10-28T20:29:02.913Z,74.72
2022-10-28T20:31:31.235Z,74.98
2022-10-28T20:34:00.559Z,75.32
2022-10-28T20:36:32.377Z,75.49
2022-10-28T20:39:03.768Z,75.44
2022-10-28T20:41:32.413Z,75.38
2022-10-28T20:43:59.331Z,75.29
2022-10-28T20:46:26.647Z,75.02
2022-10-28T20:48:56.738Z,75.20
2022-10-28T20:51:25.302Z,75.07
2022-10-28T20:53:52.072Z,74.83
2022-10-28T20:56:21.534Z,74.91
2022-10-28T20:58:47.983Z,74.67
2022-10-28T21:01:17.505Z,74.46
2022-10-28T21:03:44.891Z,74.14
2022-10-28T21:08:41.093Z,73.81
2022-10-28T21:11:10.384Z,73.55
2022-10-28T21:13:36.849Z,73.49
2022-10-28T21:16:05.283Z,73.71
2022-10-28T21:18:32.219Z,73.91
2022-10-28T21:20:59.747Z,74.37
2022-10-28T21:23:27.427Z,74.25
2022-10-28T21:25:59.748Z,74.29
2022-10-28T21:28:28.602Z,74.29
2022-10-28T21:31:03.503Z,74.52
2022-10-28T21:33:30.204Z,74.46
2022-10-28T21:35:57.959Z,74.70
2022-10-28T21:38:26.006Z,74.75
2022-10-28T21:41:11.614Z,74.81
2022-10-28T21:43:40.819Z,74.79
2022-10-28T21:46:07.795Z,75.13
2022-10-28T21:48:35.597Z,74.99
2022-10-28T21:51:07.327Z,75.67
2022-10-28T21:53:37.625Z,75.91
2022-10-28T21:56:16.943Z,76.20
2022-10-28T21:58:44.645Z,76.37
2022-10-28T22:01:13.802Z,76.53
2022-10-28T22:03:40.349Z,76.25
2022-10-28T22:06:07.386Z,76.49
2022-10-28T22:08:34.167Z,76.83
2022-10-28T22:11:23.786Z,76.95
2022-10-28T22:14:01.529Z,77.49
2022-10-28T22:16:30.124Z,77.44
2022-10-28T22:18:58.279Z,77.83
2022-10-28T22:21:27.323Z,77.96
2022-10-28T22:23:54.006Z,77.75
2022-10-28T22:26:23.216Z,78.02
2022-10-28T22:28:50.501Z,77.90
2022-10-28T22:31:19.323Z,78.01
2022-10-28T22:36:15.685Z,78.60
2022-10-28T22:38:42.329Z,78.16
2022-10-28T22:41:12.947Z,78.59
2022-10-28T22:43:40.840Z,78.35
2022-10-28T22:46:07.605Z,78.64
2022-10-28T22:48:33.988Z,78.78
2022-10-28T22:51:00.922Z,78.51
2022-10-28T22:53:27.754Z,78.71
2022-10-28T22:55:54.800Z,78.46
2022-10-28T22:58:23.248Z,78.69
2022-10-28T23:00:50.253Z,78.48
2022-10-28T23:03:16.851Z,78.95
2022-10-28T23:05:43.256Z,78.88
2022-10-28T23:08:14.925Z,78.98
2022-10-28T23:10:41.556Z,78.99
2022-10-28T23:13:11.838Z,79.01
2022-10-28T23:15:38.274Z,78.87
2022-10-28T23:18:04.664Z,79.32
2022-10-28T23:20:31.075Z,79.44
2022-10-28T23:22:57.590Z,79.81
2022-10-28T23:25:24.004Z,80.09
2022-10-28T23:27:50.375Z,80.11
2022-10-28T23:30:17.310Z,80.05
2022-10-28T23:32:43.665Z,80.35
2022-10-28T23:35:10.111Z,80.23
2022-10-28T23:37:36.731Z,79.90
2022-10-28T23:40:03.491Z,79.98
2022-10-28T23:42:29.911Z,79.45
2022-10-28T23:44:56.329Z,79.09
2022-10-28T23:47:22.768Z,79.23
2022-10-28T23:49:49.142Z,78.59
2022-10-28T23:52:15.585Z,78.37
2022-10-28T23:54:42.008Z,78.33
2022-10-28T23:57:08.429Z,78.43
2022-10-28T23:59:34.985Z,78.47
